Hillerod, Denmark
Current Conditions -  °F | °C
As of 4:20 AM on Sunday 21 Dec 2014 (Local Time) from EKCH Reporting Station
Clear Clear  
Wind Chill: 30°   Ceiling: Unl
Heat Index: 37°   Visibility: 6mi
Dew Point: 32°   Wind: 10mph
Humidity: 81%   Direction: 290°WNW
Pressure: 29.91"   Gusts: NA
Location:  55.93°N, 12.32°E
Report Text: EKCH 210320Z 29009KT CAVOK 03/00 Q1013 NOSIG
Loading
Personal Weather Stations






























Interactive Weather Map New forecast layout! Learn more

10-Day Weather Forecast

Advertisements
Track Severe Weather on mobile